sensor_id;sensor_type;location;lat;lon;timestamp;temperature;humidity
66710;DHT22;53624;0.000;0.000;2023-03-23T00:00:59;18.50;87.20
66710;DHT22;53624;0.000;0.000;2023-03-23T00:03:26;18.50;87.30
66710;DHT22;53624;0.000;0.000;2023-03-23T00:05:54;18.50;87.30
66710;DHT22;53624;0.000;0.000;2023-03-23T00:08:25;18.50;87.40
66710;DHT22;53624;0.000;0.000;2023-03-23T00:10:53;18.50;87.40
66710;DHT22;53624;0.000;0.000;2023-03-23T00:13:24;18.50;87.40
66710;DHT22;53624;0.000;0.000;2023-03-23T00:15:53;18.50;87.50
66710;DHT22;53624;0.000;0.000;2023-03-23T00:18:23;18.50;87.50
66710;DHT22;53624;0.000;0.000;2023-03-23T00:20:51;18.40;87.50
66710;DHT22;53624;0.000;0.000;2023-03-23T00:23:19;18.40;87.60
66710;DHT22;53624;0.000;0.000;2023-03-23T00:25:47;18.40;87.60
66710;DHT22;53624;0.000;0.000;2023-03-23T00:28:15;18.40;87.50
66710;DHT22;53624;0.000;0.000;2023-03-23T00:30:44;18.40;87.60
66710;DHT22;53624;0.000;0.000;2023-03-23T00:33:13;18.40;87.60
66710;DHT22;53624;0.000;0.000;2023-03-23T00:35:42;18.40;87.70
66710;DHT22;53624;0.000;0.000;2023-03-23T00:38:10;18.40;87.60
66710;DHT22;53624;0.000;0.000;2023-03-23T00:40:38;18.30;87.40
66710;DHT22;53624;0.000;0.000;2023-03-23T00:43:05;18.30;87.20
66710;DHT22;53624;0.000;0.000;2023-03-23T00:45:34;18.30;87.10
66710;DHT22;53624;0.000;0.000;2023-03-23T00:48:02;18.30;87.20
66710;DHT22;53624;0.000;0.000;2023-03-23T00:50:32;18.30;87.10
66710;DHT22;53624;0.000;0.000;2023-03-23T00:52:59;18.30;87.20
66710;DHT22;53624;0.000;0.000;2023-03-23T00:55:27;18.30;87.20
66710;DHT22;53624;0.000;0.000;2023-03-23T00:57:56;18.30;87.20
66710;DHT22;53624;0.000;0.000;2023-03-23T01:00:24;18.30;87.10
66710;DHT22;53624;0.000;0.000;2023-03-23T01:02:52;18.30;87.80
66710;DHT22;53624;0.000;0.000;2023-03-23T01:05:20;18.20;87.10
66710;DHT22;53624;0.000;0.000;2023-03-23T01:07:49;18.20;87.10
66710;DHT22;53624;0.000;0.000;2023-03-23T01:10:16;18.20;87.20
66710;DHT22;53624;0.000;0.000;2023-03-23T01:12:44;18.10;87.20
66710;DHT22;53624;0.000;0.000;2023-03-23T01:15:15;18.20;87.30
66710;DHT22;53624;0.000;0.000;2023-03-23T01:17:43;18.20;87.40
66710;DHT22;53624;0.000;0.000;2023-03-23T01:20:11;18.20;87.30
66710;DHT22;53624;0.000;0.000;2023-03-23T01:22:38;18.20;87.50
66710;DHT22;53624;0.000;0.000;2023-03-23T01:25:08;18.10;87.50
66710;DHT22;53624;0.000;0.000;2023-03-23T01:27:37;18.10;87.50
66710;DHT22;53624;0.000;0.000;2023-03-23T01:30:05;18.10;87.60
66710;DHT22;53624;0.000;0.000;2023-03-23T01:32:33;18.10;87.70
66710;DHT22;53624;0.000;0.000;2023-03-23T01:35:01;18.10;87.70
66710;DHT22;53624;0.000;0.000;2023-03-23T01:37:29;18.10;87.80
66710;DHT22;53624;0.000;0.000;2023-03-23T01:39:57;18.10;87.80
66710;DHT22;53624;0.000;0.000;2023-03-23T01:42:30;18.10;88.00
66710;DHT22;53624;0.000;0.000;2023-03-23T01:47:59;18.10;88.30
66710;DHT22;53624;0.000;0.000;2023-03-23T01:50:30;18.00;88.00
66710;DHT22;53624;0.000;0.000;2023-03-23T01:53:01;18.00;88.20
66710;DHT22;53624;0.000;0.000;2023-03-23T01:55:30;18.00;88.20
66710;DHT22;53624;0.000;0.000;2023-03-23T01:57:59;18.00;88.10
66710;DHT22;53624;0.000;0.000;2023-03-23T02:00:27;18.00;88.20
66710;DHT22;53624;0.000;0.000;2023-03-23T02:02:54;18.00;88.30
66710;DHT22;53624;0.000;0.000;2023-03-23T02:05:24;18.00;88.40
66710;DHT22;53624;0.000;0.000;2023-03-23T02:07:55;18.00;88.40
66710;DHT22;53624;0.000;0.000;2023-03-23T02:10:29;18.00;88.40
66710;DHT22;53624;0.000;0.000;2023-03-23T02:12:59;17.90;88.40
66710;DHT22;53624;0.000;0.000;2023-03-23T02:15:28;17.90;88.50
66710;DHT22;53624;0.000;0.000;2023-03-23T02:17:59;17.90;88.40
66710;DHT22;53624;0.000;0.000;2023-03-23T02:20:33;17.90;88.40
66710;DHT22;53624;0.000;0.000;2023-03-23T02:23:13;17.90;88.50
66710;DHT22;53624;0.000;0.000;2023-03-23T02:28:46;17.90;88.50
66710;DHT22;53624;0.000;0.000;2023-03-23T02:31:23;17.90;88.50
66710;DHT22;53624;0.000;0.000;2023-03-23T02:33:57;17.80;89.30
66710;DHT22;53624;0.000;0.000;2023-03-23T02:36:27;17.90;88.60
66710;DHT22;53624;0.000;0.000;2023-03-23T02:38:58;17.80;88.60
66710;DHT22;53624;0.000;0.000;2023-03-23T02:41:28;17.80;88.60
66710;DHT22;53624;0.000;0.000;2023-03-23T02:43:57;17.80;88.60
66710;DHT22;53624;0.000;0.000;2023-03-23T02:46:24;17.80;88.60
66710;DHT22;53624;0.000;0.000;2023-03-23T02:48:52;17.80;88.70
66710;DHT22;53624;0.000;0.000;2023-03-23T02:51:24;17.80;88.70
66710;DHT22;53624;0.000;0.000;2023-03-23T02:53:51;17.70;88.70
66710;DHT22;53624;0.000;0.000;2023-03-23T02:56:21;17.80;88.80
66710;DHT22;53624;0.000;0.000;2023-03-23T02:58:50;17.70;88.70
66710;DHT22;53624;0.000;0.000;2023-03-23T03:04:04;17.70;88.80
66710;DHT22;53624;0.000;0.000;2023-03-23T03:06:36;17.70;88.90
66710;DHT22;53624;0.000;0.000;2023-03-23T03:09:07;17.70;88.90
66710;DHT22;53624;0.000;0.000;2023-03-23T03:11:37;17.70;89.00
66710;DHT22;53624;0.000;0.000;2023-03-23T03:14:10;17.70;89.00
66710;DHT22;53624;0.000;0.000;2023-03-23T03:16:44;17.70;89.00
66710;DHT22;53624;0.000;0.000;2023-03-23T03:19:13;17.70;89.00
66710;DHT22;53624;0.000;0.000;2023-03-23T03:21:44;17.70;89.00
66710;DHT22;53624;0.000;0.000;2023-03-23T03:24:17;17.60;89.10
66710;DHT22;53624;0.000;0.000;2023-03-23T03:26:50;17.60;89.10
66710;DHT22;53624;0.000;0.000;2023-03-23T03:29:28;17.60;89.20
66710;DHT22;53624;0.000;0.000;2023-03-23T03:31:58;17.60;89.20
66710;DHT22;53624;0.000;0.000;2023-03-23T03:34:27;17.60;89.20
66710;DHT22;53624;0.000;0.000;2023-03-23T03:36:59;17.60;89.30
66710;DHT22;53624;0.000;0.000;2023-03-23T03:39:27;17.50;89.30
66710;DHT22;53624;0.000;0.000;2023-03-23T03:41:55;17.60;89.50
66710;DHT22;53624;0.000;0.000;2023-03-23T03:44:22;17.50;89.50
66710;DHT22;53624;0.000;0.000;2023-03-23T03:46:49;17.60;89.60
66710;DHT22;53624;0.000;0.000;2023-03-23T03:49:17;17.50;89.60
66710;DHT22;53624;0.000;0.000;2023-03-23T03:51:45;17.60;89.70
66710;DHT22;53624;0.000;0.000;2023-03-23T03:54:20;17.50;89.70
66710;DHT22;53624;0.000;0.000;2023-03-23T03:56:47;17.50;89.80
66710;DHT22;53624;0.000;0.000;2023-03-23T03:59:36;17.50;89.80
66710;DHT22;53624;0.000;0.000;2023-03-23T04:02:22;17.50;89.80
66710;DHT22;53624;0.000;0.000;2023-03-23T04:04:51;17.50;89.90
66710;DHT22;53624;0.000;0.000;2023-03-23T04:07:19;17.50;90.00
66710;DHT22;53624;0.000;0.000;2023-03-23T04:09:49;17.50;90.00
66710;DHT22;53624;0.000;0.000;2023-03-23T04:12:19;17.50;90.00
66710;DHT22;53624;0.000;0.000;2023-03-23T04:14:56;17.40;89.90
66710;DHT22;53624;0.000;0.000;2023-03-23T04:17:30;17.50;90.00
66710;DHT22;53624;0.000;0.000;2023-03-23T04:19:57;17.40;89.90
66710;DHT22;53624;0.000;0.000;2023-03-23T04:22:26;17.40;90.00
66710;DHT22;53624;0.000;0.000;2023-03-23T04:25:00;17.40;90.00
66710;DHT22;53624;0.000;0.000;2023-03-23T04:27:34;17.40;90.00
66710;DHT22;53624;0.000;0.000;2023-03-23T04:30:04;17.40;89.90
66710;DHT22;53624;0.000;0.000;2023-03-23T04:32:38;17.40;89.90
66710;DHT22;53624;0.000;0.000;2023-03-23T04:35:08;17.40;89.90
66710;DHT22;53624;0.000;0.000;2023-03-23T04:37:40;17.40;89.90
66710;DHT22;53624;0.000;0.000;2023-03-23T04:40:12;17.30;89.80
66710;DHT22;53624;0.000;0.000;2023-03-23T04:42:45;17.40;89.90
66710;DHT22;53624;0.000;0.000;2023-03-23T04:45:39;17.30;89.90
66710;DHT22;53624;0.000;0.000;2023-03-23T04:48:08;17.30;89.80
66710;DHT22;53624;0.000;0.000;2023-03-23T04:50:44;17.30;89.90
66710;DHT22;53624;0.000;0.000;2023-03-23T04:53:20;17.30;89.90
66710;DHT22;53624;0.000;0.000;2023-03-23T04:55:49;17.30;89.90
66710;DHT22;53624;0.000;0.000;2023-03-23T04:58:19;17.30;89.90
66710;DHT22;53624;0.000;0.000;2023-03-23T05:01:03;17.30;89.90
66710;DHT22;53624;0.000;0.000;2023-03-23T05:03:33;17.30;89.90
66710;DHT22;53624;0.000;0.000;2023-03-23T05:06:01;17.30;89.90
66710;DHT22;53624;0.000;0.000;2023-03-23T05:08:30;17.30;89.90
66710;DHT22;53624;0.000;0.000;2023-03-23T05:11:00;17.30;89.90
66710;DHT22;53624;0.000;0.000;2023-03-23T05:13:32;17.30;89.90
66710;DHT22;53624;0.000;0.000;2023-03-23T05:16:05;17.30;89.90
66710;DHT22;53624;0.000;0.000;2023-03-23T05:18:34;17.20;89.70
66710;DHT22;53624;0.000;0.000;2023-03-23T05:21:05;17.20;89.70
66710;DHT22;53624;0.000;0.000;2023-03-23T05:23:36;17.20;89.70
66710;DHT22;53624;0.000;0.000;2023-03-23T05:26:16;17.20;89.80
66710;DHT22;53624;0.000;0.000;2023-03-23T05:28:44;17.20;89.80
66710;DHT22;53624;0.000;0.000;2023-03-23T05:31:22;17.20;89.80
66710;DHT22;53624;0.000;0.000;2023-03-23T05:33:51;17.20;89.80
66710;DHT22;53624;0.000;0.000;2023-03-23T05:36:28;17.20;89.80
66710;DHT22;53624;0.000;0.000;2023-03-23T05:39:08;17.20;89.80
66710;DHT22;53624;0.000;0.000;2023-03-23T05:41:54;17.20;89.80
66710;DHT22;53624;0.000;0.000;2023-03-23T05:44:24;17.20;89.80
66710;DHT22;53624;0.000;0.000;2023-03-23T05:46:55;17.10;89.80
66710;DHT22;53624;0.000;0.000;2023-03-23T05:49:23;17.10;89.80
66710;DHT22;53624;0.000;0.000;2023-03-23T05:51:53;17.10;89.70
66710;DHT22;53624;0.000;0.000;2023-03-23T05:54:21;17.10;89.70
66710;DHT22;53624;0.000;0.000;2023-03-23T05:56:49;17.10;89.70
66710;DHT22;53624;0.000;0.000;2023-03-23T05:59:27;17.10;89.60
66710;DHT22;53624;0.000;0.000;2023-03-23T06:01:56;17.10;89.60
66710;DHT22;53624;0.000;0.000;2023-03-23T06:04:24;17.10;89.60
66710;DHT22;53624;0.000;0.000;2023-03-23T06:07:07;17.20;89.70
66710;DHT22;53624;0.000;0.000;2023-03-23T06:09:39;17.10;89.70
66710;DHT22;53624;0.000;0.000;2023-03-23T06:12:27;17.20;89.80
66710;DHT22;53624;0.000;0.000;2023-03-23T06:15:09;17.10;89.80
66710;DHT22;53624;0.000;0.000;2023-03-23T06:17:57;17.10;89.70
66710;DHT22;53624;0.000;0.000;2023-03-23T06:20:29;17.10;89.70
66710;DHT22;53624;0.000;0.000;2023-03-23T06:23:00;17.10;89.70
66710;DHT22;53624;0.000;0.000;2023-03-23T06:25:30;17.10;89.70
66710;DHT22;53624;0.000;0.000;2023-03-23T06:27:59;17.20;89.70
66710;DHT22;53624;0.000;0.000;2023-03-23T06:30:28;17.20;89.60
66710;DHT22;53624;0.000;0.000;2023-03-23T06:32:57;17.20;89.50
66710;DHT22;53624;0.000;0.000;2023-03-23T06:35:47;17.30;89.40
66710;DHT22;53624;0.000;0.000;2023-03-23T06:38:28;17.30;89.20
66710;DHT22;53624;0.000;0.000;2023-03-23T06:40:56;17.40;89.10
66710;DHT22;53624;0.000;0.000;2023-03-23T06:43:25;17.40;89.00
66710;DHT22;53624;0.000;0.000;2023-03-23T06:46:10;17.40;89.00
66710;DHT22;53624;0.000;0.000;2023-03-23T06:48:40;17.40;88.80
66710;DHT22;53624;0.000;0.000;2023-03-23T06:51:11;17.40;88.80
66710;DHT22;53624;0.000;0.000;2023-03-23T06:53:41;17.40;88.80
66710;DHT22;53624;0.000;0.000;2023-03-23T06:56:12;17.40;88.80
66710;DHT22;53624;0.000;0.000;2023-03-23T06:58:42;17.40;88.80
66710;DHT22;53624;0.000;0.000;2023-03-23T07:01:12;17.40;89.50
66710;DHT22;53624;0.000;0.000;2023-03-23T07:03:48;17.40;88.60
66710;DHT22;53624;0.000;0.000;2023-03-23T07:06:21;17.30;88.50
66710;DHT22;53624;0.000;0.000;2023-03-23T07:08:55;17.30;88.40
66710;DHT22;53624;0.000;0.000;2023-03-23T07:11:26;17.30;88.20
66710;DHT22;53624;0.000;0.000;2023-03-23T07:13:55;17.40;88.20
66710;DHT22;53624;0.000;0.000;2023-03-23T07:16:24;17.40;88.10
66710;DHT22;53624;0.000;0.000;2023-03-23T07:18:53;17.40;88.00
66710;DHT22;53624;0.000;0.000;2023-03-23T07:21:21;17.40;87.80
66710;DHT22;53624;0.000;0.000;2023-03-23T07:23:48;17.40;87.80
66710;DHT22;53624;0.000;0.000;2023-03-23T07:26:24;17.50;87.70
66710;DHT22;53624;0.000;0.000;2023-03-23T07:28:55;17.50;87.60
66710;DHT22;53624;0.000;0.000;2023-03-23T07:31:35;17.50;87.60
66710;DHT22;53624;0.000;0.000;2023-03-23T07:34:03;17.60;87.60
66710;DHT22;53624;0.000;0.000;2023-03-23T07:36:40;17.50;87.50
66710;DHT22;53624;0.000;0.000;2023-03-23T07:39:09;17.60;87.50
66710;DHT22;53624;0.000;0.000;2023-03-23T07:41:38;17.60;87.50
66710;DHT22;53624;0.000;0.000;2023-03-23T07:44:15;17.50;87.50
66710;DHT22;53624;0.000;0.000;2023-03-23T07:46:45;17.50;87.50
66710;DHT22;53624;0.000;0.000;2023-03-23T07:49:15;17.50;87.60
66710;DHT22;53624;0.000;0.000;2023-03-23T07:51:55;17.50;87.70
66710;DHT22;53624;0.000;0.000;2023-03-23T07:54:23;17.50;87.80
66710;DHT22;53624;0.000;0.000;2023-03-23T07:57:02;17.50;87.80
66710;DHT22;53624;0.000;0.000;2023-03-23T07:59:33;17.50;87.80
66710;DHT22;53624;0.000;0.000;2023-03-23T08:02:02;17.50;87.90
66710;DHT22;53624;0.000;0.000;2023-03-23T08:04:39;17.50;87.90
66710;DHT22;53624;0.000;0.000;2023-03-23T08:07:14;17.50;88.00
66710;DHT22;53624;0.000;0.000;2023-03-23T08:10:02;17.50;87.90
66710;DHT22;53624;0.000;0.000;2023-03-23T08:12:50;17.50;88.00
66710;DHT22;53624;0.000;0.000;2023-03-23T08:15:44;17.60;88.10
66710;DHT22;53624;0.000;0.000;2023-03-23T08:18:33;17.60;88.00
66710;DHT22;53624;0.000;0.000;2023-03-23T08:21:04;17.60;87.90
66710;DHT22;53624;0.000;0.000;2023-03-23T08:23:49;17.70;87.90
66710;DHT22;53624;0.000;0.000;2023-03-23T08:26:28;17.70;87.80
66710;DHT22;53624;0.000;0.000;2023-03-23T08:29:22;17.80;87.90
66710;DHT22;53624;0.000;0.000;2023-03-23T08:32:04;17.90;87.90
66710;DHT22;53624;0.000;0.000;2023-03-23T08:34:53;17.90;87.90
66710;DHT22;53624;0.000;0.000;2023-03-23T08:37:49;17.90;87.90
66710;DHT22;53624;0.000;0.000;2023-03-23T08:40:34;18.00;88.10
66710;DHT22;53624;0.000;0.000;2023-03-23T08:43:29;18.00;88.10
66710;DHT22;53624;0.000;0.000;2023-03-23T08:46:16;18.10;88.40
66710;DHT22;53624;0.000;0.000;2023-03-23T08:49:20;18.00;88.40
66710;DHT22;53624;0.000;0.000;2023-03-23T08:52:15;18.00;88.80
66710;DHT22;53624;0.000;0.000;2023-03-23T08:55:04;18.00;89.10
66710;DHT22;53624;0.000;0.000;2023-03-23T08:57:48;17.90;89.30
66710;DHT22;53624;0.000;0.000;2023-03-23T09:00:38;17.90;89.50
66710;DHT22;53624;0.000;0.000;2023-03-23T09:03:15;17.90;89.70
66710;DHT22;53624;0.000;0.000;2023-03-23T09:06:15;17.80;89.80
66710;DHT22;53624;0.000;0.000;2023-03-23T09:08:46;17.80;89.80
66710;DHT22;53624;0.000;0.000;2023-03-23T09:11:16;17.80;89.90
66710;DHT22;53624;0.000;0.000;2023-03-23T09:13:43;17.90;90.00
66710;DHT22;53624;0.000;0.000;2023-03-23T09:16:11;17.90;89.90
66710;DHT22;53624;0.000;0.000;2023-03-23T09:18:38;17.90;89.90
66710;DHT22;53624;0.000;0.000;2023-03-23T09:21:06;18.00;89.90
66710;DHT22;53624;0.000;0.000;2023-03-23T09:23:34;18.10;89.80
66710;DHT22;53624;0.000;0.000;2023-03-23T09:26:03;18.20;89.70
66710;DHT22;53624;0.000;0.000;2023-03-23T09:28:30;18.30;89.50
66710;DHT22;53624;0.000;0.000;2023-03-23T09:30:58;18.40;89.30
66710;DHT22;53624;0.000;0.000;2023-03-23T09:33:26;18.50;89.10
66710;DHT22;53624;0.000;0.000;2023-03-23T09:35:54;18.60;89.00
66710;DHT22;53624;0.000;0.000;2023-03-23T09:38:22;18.70;88.90
66710;DHT22;53624;0.000;0.000;2023-03-23T09:40:52;18.70;88.80
66710;DHT22;53624;0.000;0.000;2023-03-23T09:43:29;18.80;88.80
66710;DHT22;53624;0.000;0.000;2023-03-23T09:46:05;18.80;88.80
66710;DHT22;53624;0.000;0.000;2023-03-23T09:48:38;18.90;88.70
66710;DHT22;53624;0.000;0.000;2023-03-23T09:51:11;18.90;88.80
66710;DHT22;53624;0.000;0.000;2023-03-23T09:53:40;19.00;88.70
66710;DHT22;53624;0.000;0.000;2023-03-23T09:56:10;19.10;88.70
66710;DHT22;53624;0.000;0.000;2023-03-23T09:58:42;19.10;88.70
66710;DHT22;53624;0.000;0.000;2023-03-23T10:01:14;19.10;88.80
66710;DHT22;53624;0.000;0.000;2023-03-23T10:03:42;19.20;89.00
66710;DHT22;53624;0.000;0.000;2023-03-23T10:06:11;19.20;89.20
66710;DHT22;53624;0.000;0.000;2023-03-23T10:08:41;19.20;89.20
66710;DHT22;53624;0.000;0.000;2023-03-23T10:11:11;19.20;89.10
66710;DHT22;53624;0.000;0.000;2023-03-23T10:13:46;19.30;89.00
66710;DHT22;53624;0.000;0.000;2023-03-23T10:16:17;19.40;88.90
66710;DHT22;53624;0.000;0.000;2023-03-23T10:18:47;19.40;89.00
66710;DHT22;53624;0.000;0.000;2023-03-23T10:21:18;19.60;88.70
66710;DHT22;53624;0.000;0.000;2023-03-23T10:23:49;19.60;88.60
66710;DHT22;53624;0.000;0.000;2023-03-23T10:26:22;19.70;88.40
66710;DHT22;53624;0.000;0.000;2023-03-23T10:28:54;19.70;88.50
66710;DHT22;53624;0.000;0.000;2023-03-23T10:31:24;19.70;88.60
66710;DHT22;53624;0.000;0.000;2023-03-23T10:33:53;19.70;88.50
66710;DHT22;53624;0.000;0.000;2023-03-23T10:36:23;19.80;88.50
66710;DHT22;53624;0.000;0.000;2023-03-23T10:38:53;19.90;88.20
66710;DHT22;53624;0.000;0.000;2023-03-23T10:41:23;20.00;88.40
66710;DHT22;53624;0.000;0.000;2023-03-23T10:43:50;20.10;88.00
66710;DHT22;53624;0.000;0.000;2023-03-23T10:46:29;20.20;87.70
66710;DHT22;53624;0.000;0.000;2023-03-23T10:48:59;20.30;87.70
66710;DHT22;53624;0.000;0.000;2023-03-23T10:51:30;20.30;87.90
66710;DHT22;53624;0.000;0.000;2023-03-23T10:54:00;20.30;87.60
66710;DHT22;53624;0.000;0.000;2023-03-23T10:56:28;20.40;87.70
66710;DHT22;53624;0.000;0.000;2023-03-23T10:58:56;20.50;87.50
66710;DHT22;53624;0.000;0.000;2023-03-23T11:01:33;20.80;87.00
66710;DHT22;53624;0.000;0.000;2023-03-23T11:04:02;21.00;86.80
66710;DHT22;53624;0.000;0.000;2023-03-23T11:06:30;21.10;86.70
66710;DHT22;53624;0.000;0.000;2023-03-23T11:09:09;21.00;86.90
66710;DHT22;53624;0.000;0.000;2023-03-23T11:11:38;20.90;87.20
66710;DHT22;53624;0.000;0.000;2023-03-23T11:14:14;20.90;87.40
66710;DHT22;53624;0.000;0.000;2023-03-23T11:16:44;20.90;87.40
66710;DHT22;53624;0.000;0.000;2023-03-23T11:19:12;20.90;87.40
66710;DHT22;53624;0.000;0.000;2023-03-23T11:21:40;20.80;87.60
66710;DHT22;53624;0.000;0.000;2023-03-23T11:24:13;20.80;87.60
66710;DHT22;53624;0.000;0.000;2023-03-23T11:26:40;20.90;87.60
66710;DHT22;53624;0.000;0.000;2023-03-23T11:29:12;20.90;87.50
66710;DHT22;53624;0.000;0.000;2023-03-23T11:31:41;20.90;87.50
66710;DHT22;53624;0.000;0.000;2023-03-23T11:34:13;20.90;87.70
66710;DHT22;53624;0.000;0.000;2023-03-23T11:36:42;20.90;87.70
66710;DHT22;53624;0.000;0.000;2023-03-23T11:41:56;20.90;87.70
66710;DHT22;53624;0.000;0.000;2023-03-23T11:44:31;20.80;87.90
66710;DHT22;53624;0.000;0.000;2023-03-23T11:46:59;20.70;88.10
66710;DHT22;53624;0.000;0.000;2023-03-23T11:49:32;20.70;89.00
66710;DHT22;53624;0.000;0.000;2023-03-23T11:52:07;20.70;88.30
66710;DHT22;53624;0.000;0.000;2023-03-23T11:54:37;20.60;88.30
66710;DHT22;53624;0.000;0.000;2023-03-23T11:57:06;20.60;88.50
66710;DHT22;53624;0.000;0.000;2023-03-23T11:59:35;20.50;88.60
66710;DHT22;53624;0.000;0.000;2023-03-23T12:02:10;20.50;88.70
66710;DHT22;53624;0.000;0.000;2023-03-23T12:04:49;20.50;88.80
66710;DHT22;53624;0.000;0.000;2023-03-23T12:07:25;20.50;88.90
66710;DHT22;53624;0.000;0.000;2023-03-23T12:10:00;20.40;88.80
66710;DHT22;53624;0.000;0.000;2023-03-23T12:12:31;20.40;88.90
66710;DHT22;53624;0.000;0.000;2023-03-23T12:15:08;20.40;89.00
66710;DHT22;53624;0.000;0.000;2023-03-23T12:17:42;20.40;89.20
66710;DHT22;53624;0.000;0.000;2023-03-23T12:20:17;20.40;89.20
66710;DHT22;53624;0.000;0.000;2023-03-23T12:22:51;20.40;89.20
66710;DHT22;53624;0.000;0.000;2023-03-23T12:25:39;20.40;89.20
66710;DHT22;53624;0.000;0.000;2023-03-23T12:28:11;20.30;89.90
66710;DHT22;53624;0.000;0.000;2023-03-23T12:30:45;20.30;89.60
66710;DHT22;53624;0.000;0.000;2023-03-23T12:33:18;20.30;89.70
66710;DHT22;53624;0.000;0.000;2023-03-23T12:35:52;20.20;89.80
66710;DHT22;53624;0.000;0.000;2023-03-23T12:41:05;20.20;90.00
66710;DHT22;53624;0.000;0.000;2023-03-23T12:43:38;20.10;90.10
66710;DHT22;53624;0.000;0.000;2023-03-23T12:46:20;20.10;90.10
66710;DHT22;53624;0.000;0.000;2023-03-23T12:48:51;20.10;90.10
66710;DHT22;53624;0.000;0.000;2023-03-23T12:51:22;20.10;90.20
66710;DHT22;53624;0.000;0.000;2023-03-23T12:53:54;20.10;90.30
66710;DHT22;53624;0.000;0.000;2023-03-23T12:56:26;20.10;90.20
66710;DHT22;53624;0.000;0.000;2023-03-23T12:58:55;20.10;90.30
66710;DHT22;53624;0.000;0.000;2023-03-23T13:01:26;20.10;90.30
66710;DHT22;53624;0.000;0.000;2023-03-23T13:03:56;20.10;90.50
66710;DHT22;53624;0.000;0.000;2023-03-23T13:06:29;20.10;90.40
66710;DHT22;53624;0.000;0.000;2023-03-23T13:09:00;20.10;90.70
66710;DHT22;53624;0.000;0.000;2023-03-23T13:11:31;20.10;90.30
66710;DHT22;53624;0.000;0.000;2023-03-23T13:14:05;20.10;90.40
66710;DHT22;53624;0.000;0.000;2023-03-23T13:16:35;20.10;90.40
66710;DHT22;53624;0.000;0.000;2023-03-23T13:19:06;20.10;90.30
66710;DHT22;53624;0.000;0.000;2023-03-23T13:21:38;20.20;90.30
66710;DHT22;53624;0.000;0.000;2023-03-23T13:24:09;20.20;90.30
66710;DHT22;53624;0.000;0.000;2023-03-23T13:26:38;20.30;90.30
66710;DHT22;53624;0.000;0.000;2023-03-23T13:29:09;20.20;90.20
66710;DHT22;53624;0.000;0.000;2023-03-23T13:31:40;20.30;90.30
66710;DHT22;53624;0.000;0.000;2023-03-23T13:34:12;20.30;90.30
66710;DHT22;53624;0.000;0.000;2023-03-23T13:36:41;20.30;90.20
66710;DHT22;53624;0.000;0.000;2023-03-23T13:39:16;20.30;90.30
66710;DHT22;53624;0.000;0.000;2023-03-23T13:41:46;20.30;90.30
66710;DHT22;53624;0.000;0.000;2023-03-23T13:44:18;20.30;90.40
66710;DHT22;53624;0.000;0.000;2023-03-23T13:46:56;20.20;90.40
66710;DHT22;53624;0.000;0.000;2023-03-23T13:49:24;20.20;90.50
66710;DHT22;53624;0.000;0.000;2023-03-23T13:52:00;20.10;90.60
66710;DHT22;53624;0.000;0.000;2023-03-23T13:54:37;20.10;90.70
66710;DHT22;53624;0.000;0.000;2023-03-23T13:57:19;20.00;90.80
66710;DHT22;53624;0.000;0.000;2023-03-23T13:59:48;20.00;90.80
66710;DHT22;53624;0.000;0.000;2023-03-23T14:02:32;20.00;90.80
66710;DHT22;53624;0.000;0.000;2023-03-23T14:05:25;20.00;90.80
66710;DHT22;53624;0.000;0.000;2023-03-23T14:07:57;20.00;91.20
66710;DHT22;53624;0.000;0.000;2023-03-23T14:10:36;20.00;90.90
66710;DHT22;53624;0.000;0.000;2023-03-23T14:13:04;20.00;90.90
66710;DHT22;53624;0.000;0.000;2023-03-23T14:15:37;20.00;91.20
66710;DHT22;53624;0.000;0.000;2023-03-23T14:18:11;20.00;90.90
66710;DHT22;53624;0.000;0.000;2023-03-23T14:20:40;20.00;90.80
66710;DHT22;53624;0.000;0.000;2023-03-23T14:23:13;20.00;90.90
66710;DHT22;53624;0.000;0.000;2023-03-23T14:25:41;20.00;91.00
66710;DHT22;53624;0.000;0.000;2023-03-23T14:28:16;20.00;91.00
66710;DHT22;53624;0.000;0.000;2023-03-23T14:30:44;20.00;91.10
66710;DHT22;53624;0.000;0.000;2023-03-23T14:33:11;19.90;91.10
66710;DHT22;53624;0.000;0.000;2023-03-23T14:35:40;19.90;91.20
66710;DHT22;53624;0.000;0.000;2023-03-23T14:38:11;19.90;91.30
66710;DHT22;53624;0.000;0.000;2023-03-23T14:40:42;19.90;91.20
66710;DHT22;53624;0.000;0.000;2023-03-23T14:43:10;19.90;91.30
66710;DHT22;53624;0.000;0.000;2023-03-23T14:45:38;19.80;91.40
66710;DHT22;53624;0.000;0.000;2023-03-23T14:48:06;19.80;91.40
66710;DHT22;53624;0.000;0.000;2023-03-23T14:50:37;19.80;91.40
66710;DHT22;53624;0.000;0.000;2023-03-23T14:53:09;19.80;91.50
66710;DHT22;53624;0.000;0.000;2023-03-23T14:55:41;19.80;91.50
66710;DHT22;53624;0.000;0.000;2023-03-23T14:58:12;19.80;91.60
66710;DHT22;53624;0.000;0.000;2023-03-23T15:00:40;19.80;91.60
66710;DHT22;53624;0.000;0.000;2023-03-23T15:03:11;19.80;91.60
66710;DHT22;53624;0.000;0.000;2023-03-23T15:05:41;19.80;91.70
66710;DHT22;53624;0.000;0.000;2023-03-23T15:08:12;19.80;91.60
66710;DHT22;53624;0.000;0.000;2023-03-23T15:10:40;19.80;91.70
66710;DHT22;53624;0.000;0.000;2023-03-23T15:13:11;19.80;91.80
66710;DHT22;53624;0.000;0.000;2023-03-23T15:15:39;19.80;91.80
66710;DHT22;53624;0.000;0.000;2023-03-23T15:18:14;19.80;91.80
66710;DHT22;53624;0.000;0.000;2023-03-23T15:20:46;19.80;91.80
66710;DHT22;53624;0.000;0.000;2023-03-23T15:23:14;19.80;91.70
66710;DHT22;53624;0.000;0.000;2023-03-23T15:25:47;19.80;91.70
66710;DHT22;53624;0.000;0.000;2023-03-23T15:28:17;19.80;91.80
66710;DHT22;53624;0.000;0.000;2023-03-23T15:30:48;19.80;91.80
66710;DHT22;53624;0.000;0.000;2023-03-23T15:33:16;19.80;91.80
66710;DHT22;53624;0.000;0.000;2023-03-23T15:35:45;19.80;91.80
66710;DHT22;53624;0.000;0.000;2023-03-23T15:38:15;19.80;91.80
66710;DHT22;53624;0.000;0.000;2023-03-23T15:40:44;19.80;91.80
66710;DHT22;53624;0.000;0.000;2023-03-23T15:43:17;19.80;91.80
66710;DHT22;53624;0.000;0.000;2023-03-23T15:45:55;19.80;91.90
66710;DHT22;53624;0.000;0.000;2023-03-23T15:48:26;19.80;91.90
66710;DHT22;53624;0.000;0.000;2023-03-23T15:50:54;19.80;91.90
66710;DHT22;53624;0.000;0.000;2023-03-23T15:53:26;19.80;91.90
66710;DHT22;53624;0.000;0.000;2023-03-23T15:55:54;19.90;91.90
66710;DHT22;53624;0.000;0.000;2023-03-23T15:58:23;19.90;91.90
66710;DHT22;53624;0.000;0.000;2023-03-23T16:00:51;19.90;91.90
66710;DHT22;53624;0.000;0.000;2023-03-23T16:03:21;19.90;91.90
66710;DHT22;53624;0.000;0.000;2023-03-23T16:05:50;19.90;91.90
66710;DHT22;53624;0.000;0.000;2023-03-23T16:08:18;19.90;92.00
66710;DHT22;53624;0.000;0.000;2023-03-23T16:10:45;19.80;92.00
66710;DHT22;53624;0.000;0.000;2023-03-23T16:13:13;19.80;92.40
66710;DHT22;53624;0.000;0.000;2023-03-23T16:15:41;19.80;92.10
66710;DHT22;53624;0.000;0.000;2023-03-23T16:18:11;19.70;92.10
66710;DHT22;53624;0.000;0.000;2023-03-23T16:20:42;19.70;92.20
66710;DHT22;53624;0.000;0.000;2023-03-23T16:23:09;19.70;92.50
66710;DHT22;53624;0.000;0.000;2023-03-23T16:25:36;19.70;92.20
66710;DHT22;53624;0.000;0.000;2023-03-23T16:28:04;19.70;92.20
66710;DHT22;53624;0.000;0.000;2023-03-23T16:30:32;19.60;92.30